Time;durP1;ratioP1;P1;durP2;ratioP2;P2;SDS_P1;SDS_P2;PMS_P1;PMS_P2;Temp;Humidity;BMP_temperature;BMP_pressure;BME280_temperature;BME280_humidity;BME280_pressure;Samples;Min_cycle;Max_cycle;Signal;HPM_P1;HPM_P2
2023/06/24 00:02:18;;;;;;;3.80;3.50;;;;;;;;;;5036304;28;20344;-21
2023/06/24 00:04:44;;;;;;;4.97;4.15;;;;;;;;;;5036004;28;20104;-22
2023/06/24 00:07:11;;;;;;;4.10;3.80;;;;;;;;;;5035936;28;20029;-23
2023/06/24 00:09:37;;;;;;;4.82;4.40;;;;;;;;;;5035691;28;20030;-21
2023/06/24 00:12:03;;;;;;;7.15;3.95;;;;;;;;;;5035596;28;20025;-21
2023/06/24 00:14:29;;;;;;;5.30;3.55;;;;;;;;;;5036232;28;20396;-22
2023/06/24 00:16:56;;;;;;;4.32;3.92;;;;;;;;;;5035713;28;20030;-21
2023/06/24 00:19:26;;;;;;;7.90;3.65;;;;;;;;;;5035895;28;20104;-22
2023/06/24 00:21:53;;;;;;;3.97;3.22;;;;;;;;;;5036248;28;20033;-22
2023/06/24 00:24:21;;;;;;;5.35;3.97;;;;;;;;;;5035895;28;20029;-24
2023/06/24 00:26:47;;;;;;;7.25;4.75;;;;;;;;;;5035867;28;20029;-21
2023/06/24 00:29:14;;;;;;;4.07;3.30;;;;;;;;;;5035483;28;20026;-21
2023/06/24 00:31:41;;;;;;;6.05;3.30;;;;;;;;;;5035657;28;20034;-21
2023/06/24 00:34:07;;;;;;;4.93;3.70;;;;;;;;;;5035454;28;20025;-22
2023/06/24 00:36:35;;;;;;;4.10;3.75;;;;;;;;;;5035409;28;20025;-22
2023/06/24 00:39:04;;;;;;;5.13;3.72;;;;;;;;;;5035202;28;20022;-23
2023/06/24 00:41:31;;;;;;;4.85;4.22;;;;;;;;;;5035591;28;20033;-22
2023/06/24 00:43:58;;;;;;;4.32;3.92;;;;;;;;;;5035231;28;20021;-21
2023/06/24 00:46:27;;;;;;;8.73;5.13;;;;;;;;;;5035214;28;20472;-22
2023/06/24 00:48:57;;;;;;;3.97;3.50;;;;;;;;;;5035082;28;20061;-22
2023/06/24 00:51:30;;;;;;;4.40;3.70;;;;;;;;;;5014193;28;20046;-24
2023/06/24 00:54:00;;;;;;;4.25;3.60;;;;;;;;;;5015976;28;20022;-21
2023/06/24 00:56:31;;;;;;;5.03;3.50;;;;;;;;;;5015552;28;20029;-22
2023/06/24 00:59:01;;;;;;;3.45;3.15;;;;;;;;;;5015193;28;20108;-21
2023/06/24 01:01:31;;;;;;;3.63;3.33;;;;;;;;;;5015213;28;20049;-22
2023/06/24 01:03:58;;;;;;;4.28;3.88;;;;;;;;;;5015255;28;20026;-21
2023/06/24 01:06:29;;;;;;;3.90;3.50;;;;;;;;;;5015195;28;20105;-23
2023/06/24 01:08:59;;;;;;;3.67;3.38;;;;;;;;;;5015403;28;20364;-21
2023/06/24 01:11:26;;;;;;;3.90;3.60;;;;;;;;;;5015038;28;20117;-21
2023/06/24 01:13:53;;;;;;;7.75;4.40;;;;;;;;;;5015029;28;20022;-21
2023/06/24 01:16:25;;;;;;;4.03;3.55;;;;;;;;;;5015299;28;20025;-23
2023/06/24 01:18:54;;;;;;;4.50;3.63;;;;;;;;;;5014950;28;20018;-21
2023/06/24 01:21:34;;;;;;;4.32;3.92;;;;;;;;;;5014025;28;20037;-21
2023/06/24 01:24:03;;;;;;;4.25;3.95;;;;;;;;;;5014421;28;20030;-24
2023/06/24 01:26:32;;;;;;;5.25;2.90;;;;;;;;;;5015212;28;20034;-21
2023/06/24 01:29:10;;;;;;;3.90;3.53;;;;;;;;;;5014811;28;20049;-22
2023/06/24 01:31:39;;;;;;;4.20;3.60;;;;;;;;;;5015093;28;20361;-25
2023/06/24 01:34:13;;;;;;;3.70;3.40;;;;;;;;;;5014869;28;20357;-21
2023/06/24 01:36:41;;;;;;;3.67;3.33;;;;;;;;;;5015159;28;20077;-23
2023/06/24 01:39:09;;;;;;;4.13;3.33;;;;;;;;;;5014763;28;20022;-22
2023/06/24 01:41:38;;;;;;;5.32;3.83;;;;;;;;;;5014778;28;20065;-23
2023/06/24 01:44:05;;;;;;;3.45;2.60;;;;;;;;;;5015067;28;20022;-21
2023/06/24 01:46:31;;;;;;;3.65;3.35;;;;;;;;;;5014648;28;20026;-25
2023/06/24 01:49:03;;;;;;;3.78;3.05;;;;;;;;;;5014658;28;20021;-21
2023/06/24 01:51:30;;;;;;;3.40;3.10;;;;;;;;;;5029430;28;20049;-21
2023/06/24 01:54:00;;;;;;;3.55;3.25;;;;;;;;;;5034715;28;20025;-21
2023/06/24 01:56:27;;;;;;;3.83;3.25;;;;;;;;;;5034981;28;20021;-22
2023/06/24 01:58:54;;;;;;;4.13;3.30;;;;;;;;;;5034524;28;20056;-21
2023/06/24 02:01:22;;;;;;;4.40;3.42;;;;;;;;;;5034597;28;20021;-21
2023/06/24 02:03:49;;;;;;;3.25;3.05;;;;;;;;;;5034544;28;20022;-21
2023/06/24 02:06:17;;;;;;;3.97;3.47;;;;;;;;;;5034276;28;20048;-22
2023/06/24 02:08:44;;;;;;;3.78;3.38;;;;;;;;;;5034168;28;20086;-23
2023/06/24 02:11:10;;;;;;;3.90;3.53;;;;;;;;;;5034348;28;20068;-23
2023/06/24 02:13:38;;;;;;;3.70;3.40;;;;;;;;;;5034242;28;20048;-21
2023/06/24 02:16:06;;;;;;;10.15;3.63;;;;;;;;;;5034974;28;20436;-21
2023/06/24 02:18:36;;;;;;;3.58;3.15;;;;;;;;;;5035219;28;20326;-22
2023/06/24 02:21:04;;;;;;;4.07;3.58;;;;;;;;;;5034390;28;20029;-21
2023/06/24 02:23:30;;;;;;;3.60;3.30;;;;;;;;;;5034144;28;20025;-24
2023/06/24 02:25:57;;;;;;;3.20;3.00;;;;;;;;;;5034412;28;20025;-22
2023/06/24 02:28:24;;;;;;;4.25;3.88;;;;;;;;;;5034095;28;20025;-23
2023/06/24 02:30:50;;;;;;;4.43;3.25;;;;;;;;;;5034187;28;20025;-22
2023/06/24 02:33:17;;;;;;;3.58;3.28;;;;;;;;;;5034301;28;20079;-23
2023/06/24 02:35:45;;;;;;;4.45;3.03;;;;;;;;;;5036437;28;20099;-21
2023/06/24 02:38:11;;;;;;;2.92;2.72;;;;;;;;;;5038169;28;20018;-22
2023/06/24 02:40:37;;;;;;;3.22;2.92;;;;;;;;;;5037510;28;20025;-21
2023/06/24 02:43:03;;;;;;;4.20;3.85;;;;;;;;;;5037790;28;20044;-21
2023/06/24 02:45:30;;;;;;;3.90;3.60;;;;;;;;;;5037762;28;20452;-23
2023/06/24 02:47:56;;;;;;;3.75;3.45;;;;;;;;;;5037688;28;20034;-21
2023/06/24 02:50:24;;;;;;;4.88;3.50;;;;;;;;;;5037104;28;20468;-26
2023/06/24 02:52:51;;;;;;;3.70;3.30;;;;;;;;;;5037327;28;20029;-22
2023/06/24 02:55:17;;;;;;;4.07;3.65;;;;;;;;;;5019888;28;20452;-21
2023/06/24 02:57:44;;;;;;;4.22;3.30;;;;;;;;;;5037528;28;20048;-24
2023/06/24 03:00:14;;;;;;;3.88;3.10;;;;;;;;;;5037417;28;20349;-22
2023/06/24 03:02:42;;;;;;;3.63;3.00;;;;;;;;;;5037977;28;20013;-22
2023/06/24 03:05:09;;;;;;;3.53;3.22;;;;;;;;;;5037205;28;20357;-21
2023/06/24 03:07:36;;;;;;;5.47;3.33;;;;;;;;;;5037386;28;20059;-22
2023/06/24 03:10:05;;;;;;;3.58;3.28;;;;;;;;;;5037146;28;20029;-26
2023/06/24 03:12:32;;;;;;;3.45;3.15;;;;;;;;;;5036932;28;20025;-21
2023/06/24 03:14:58;;;;;;;3.38;3.00;;;;;;;;;;5037474;28;20048;-21
2023/06/24 03:17:27;;;;;;;4.45;3.67;;;;;;;;;;5037169;28;20344;-23
2023/06/24 03:19:53;;;;;;;6.45;3.33;;;;;;;;;;5037007;28;20051;-21
2023/06/24 03:22:19;;;;;;;3.47;3.17;;;;;;;;;;5037340;28;20034;-22
2023/06/24 03:24:46;;;;;;;3.63;3.33;;;;;;;;;;5037071;28;20104;-21
2023/06/24 03:27:12;;;;;;;7.95;3.88;;;;;;;;;;5037228;28;20032;-21
2023/06/24 03:29:39;;;;;;;3.47;2.75;;;;;;;;;;5036584;28;20021;-22
2023/06/24 03:32:05;;;;;;;3.25;2.95;;;;;;;;;;5036949;28;20017;-22
2023/06/24 03:34:31;;;;;;;3.28;3.05;;;;;;;;;;5036913;28;20025;-24
2023/06/24 03:36:57;;;;;;;3.20;3.00;;;;;;;;;;5036520;28;20029;-23
2023/06/24 03:39:23;;;;;;;4.55;3.28;;;;;;;;;;5036674;28;20025;-21
2023/06/24 03:41:49;;;;;;;5.07;3.40;;;;;;;;;;5036744;28;20033;-21
2023/06/24 03:44:16;;;;;;;3.55;3.25;;;;;;;;;;5036449;28;20025;-21
2023/06/24 03:46:42;;;;;;;3.05;2.85;;;;;;;;;;5035407;28;20032;-21
2023/06/24 03:49:08;;;;;;;3.20;3.00;;;;;;;;;;5036479;28;20049;-22
2023/06/24 03:51:34;;;;;;;3.30;2.85;;;;;;;;;;5036096;28;20413;-22
2023/06/24 03:54:00;;;;;;;3.05;2.85;;;;;;;;;;5036186;28;20064;-22
2023/06/24 03:56:26;;;;;;;3.95;3.60;;;;;;;;;;5036423;28;20026;-21
2023/06/24 03:58:52;;;;;;;4.95;3.47;;;;;;;;;;5036267;28;20083;-23
2023/06/24 04:01:19;;;;;;;3.42;2.83;;;;;;;;;;5036349;28;20061;-21
2023/06/24 04:03:45;;;;;;;3.83;3.10;;;;;;;;;;5036017;28;20026;-22
2023/06/24 04:06:11;;;;;;;5.55;2.90;;;;;;;;;;5036021;28;20026;-21
2023/06/24 04:08:39;;;;;;;3.63;3.33;;;;;;;;;;5036228;28;20387;-22
2023/06/24 04:11:06;;;;;;;4.32;3.10;;;;;;;;;;5035704;28;20104;-22
2023/06/24 04:13:35;;;;;;;3.50;3.15;;;;;;;;;;5036109;28;20025;-21
2023/06/24 04:16:02;;;;;;;3.35;3.08;;;;;;;;;;5035855;28;20440;-24
2023/06/24 04:18:28;;;;;;;3.00;2.80;;;;;;;;;;5035768;28;20026;-22
2023/06/24 04:20:54;;;;;;;3.55;2.90;;;;;;;;;;5035668;28;20441;-23
2023/06/24 04:23:21;;;;;;;3.35;3.05;;;;;;;;;;5035942;28;20044;-23
2023/06/24 04:25:47;;;;;;;3.25;2.78;;;;;;;;;;5036153;28;20047;-23
2023/06/24 04:28:13;;;;;;;3.10;2.83;;;;;;;;;;5035846;28;20407;-21
2023/06/24 04:30:39;;;;;;;5.30;3.05;;;;;;;;;;5017869;28;20460;-21
2023/06/24 04:33:05;;;;;;;4.80;3.40;;;;;;;;;;5035456;28;20091;-22
2023/06/24 04:35:31;;;;;;;3.30;3.00;;;;;;;;;;5035732;28;20021;-22
2023/06/24 04:37:58;;;;;;;4.28;2.80;;;;;;;;;;5035662;28;20360;-24
2023/06/24 04:40:24;;;;;;;3.90;2.85;;;;;;;;;;5035571;28;20025;-24
2023/06/24 04:42:50;;;;;;;2.85;2.65;;;;;;;;;;5035253;28;20026;-27
2023/06/24 04:45:16;;;;;;;4.18;2.72;;;;;;;;;;5035518;28;20363;-21
2023/06/24 04:47:43;;;;;;;2.75;2.55;;;;;;;;;;5035161;28;20022;-21
2023/06/24 04:50:09;;;;;;;3.30;2.70;;;;;;;;;;5034872;28;20041;-22
2023/06/24 04:52:36;;;;;;;3.22;2.95;;;;;;;;;;5035448;28;20021;-24
2023/06/24 04:55:02;;;;;;;3.30;2.45;;;;;;;;;;5035359;28;20106;-21
2023/06/24 04:57:29;;;;;;;2.50;2.30;;;;;;;;;;5034916;28;20464;-21
2023/06/24 04:59:55;;;;;;;2.90;2.65;;;;;;;;;;5034864;28;20033;-22
2023/06/24 05:02:22;;;;;;;3.53;3.22;;;;;;;;;;5034971;28;20030;-24
2023/06/24 05:04:48;;;;;;;3.10;2.67;;;;;;;;;;5035465;28;20314;-22
2023/06/24 05:07:14;;;;;;;2.83;2.63;;;;;;;;;;5035199;28;20033;-22
2023/06/24 05:09:40;;;;;;;3.10;2.80;;;;;;;;;;5034714;28;20112;-21
2023/06/24 05:12:06;;;;;;;3.13;2.88;;;;;;;;;;5035132;28;20022;-22
2023/06/24 05:14:34;;;;;;;2.85;2.47;;;;;;;;;;5035089;28;20025;-23
2023/06/24 05:17:00;;;;;;;2.83;2.60;;;;;;;;;;5034760;28;20022;-22
2023/06/24 05:19:26;;;;;;;2.97;2.78;;;;;;;;;;5034717;28;20022;-24
2023/06/24 05:21:52;;;;;;;2.60;2.45;;;;;;;;;;5034681;28;20033;-23
2023/06/24 05:24:19;;;;;;;3.40;3.13;;;;;;;;;;5034982;28;20147;-21
2023/06/24 05:26:49;;;;;;;4.05;2.90;;;;;;;;;;5034908;28;20026;-22
2023/06/24 05:29:16;;;;;;;2.75;2.55;;;;;;;;;;5034591;28;20053;-21
2023/06/24 05:31:42;;;;;;;3.08;2.65;;;;;;;;;;5034514;28;20365;-22
2023/06/24 05:34:08;;;;;;;2.90;2.70;;;;;;;;;;5034586;28;20346;-22
2023/06/24 05:36:34;;;;;;;3.88;3.58;;;;;;;;;;5034857;28;20018;-23
2023/06/24 05:39:00;;;;;;;3.08;2.88;;;;;;;;;;5034696;28;20017;-22
2023/06/24 05:41:27;;;;;;;3.78;3.05;;;;;;;;;;5034555;28;20030;-21
2023/06/24 05:44:06;;;;;;;3.63;3.28;;;;;;;;;;5034742;28;20376;-22
2023/06/24 05:46:33;;;;;;;2.90;2.70;;;;;;;;;;5034495;28;20040;-21
2023/06/24 05:48:59;;;;;;;3.00;2.80;;;;;;;;;;5034384;28;20542;-22
2023/06/24 05:51:25;;;;;;;4.43;2.45;;;;;;;;;;5034180;28;20050;-22
2023/06/24 05:53:51;;;;;;;3.42;3.13;;;;;;;;;;5034357;28;20464;-21
2023/06/24 05:56:18;;;;;;;3.30;3.10;;;;;;;;;;5034433;28;20033;-21
2023/06/24 05:58:44;;;;;;;2.78;2.58;;;;;;;;;;5034392;28;20079;-23
2023/06/24 06:01:10;;;;;;;2.95;2.35;;;;;;;;;;5034517;28;20107;-22
2023/06/24 06:03:37;;;;;;;2.65;2.45;;;;;;;;;;5034643;28;20029;-21
2023/06/24 06:06:03;;;;;;;3.58;3.28;;;;;;;;;;5034545;28;20521;-21
2023/06/24 06:08:29;;;;;;;3.03;2.83;;;;;;;;;;5034277;28;20044;-21
2023/06/24 06:10:55;;;;;;;3.00;2.67;;;;;;;;;;5036840;28;20053;-22
2023/06/24 06:13:21;;;;;;;2.75;2.55;;;;;;;;;;5038414;28;20034;-23
2023/06/24 06:15:47;;;;;;;3.13;2.92;;;;;;;;;;5038349;28;20352;-23
2023/06/24 06:18:14;;;;;;;2.85;2.53;;;;;;;;;;5038040;28;20021;-22
2023/06/24 06:20:40;;;;;;;3.10;2.90;;;;;;;;;;5038141;28;20436;-22
2023/06/24 06:23:07;;;;;;;4.50;3.33;;;;;;;;;;5038207;28;20029;-21
2023/06/24 06:25:33;;;;;;;3.38;3.17;;;;;;;;;;5037890;28;20480;-22
2023/06/24 06:27:59;;;;;;;3.30;3.10;;;;;;;;;;5037857;28;20075;-21
2023/06/24 06:30:25;;;;;;;2.30;2.20;;;;;;;;;;5037650;28;20035;-22
2023/06/24 06:32:51;;;;;;;3.25;2.95;;;;;;;;;;5037747;28;20036;-21
2023/06/24 06:35:17;;;;;;;3.08;2.83;;;;;;;;;;5037728;28;20022;-22
2023/06/24 06:37:46;;;;;;;3.60;3.30;;;;;;;;;;5037676;28;20033;-21
2023/06/24 06:40:12;;;;;;;2.85;2.75;;;;;;;;;;5037512;28;20108;-22
2023/06/24 06:42:38;;;;;;;3.47;3.28;;;;;;;;;;5037587;28;20419;-23
2023/06/24 06:45:05;;;;;;;3.28;3.00;;;;;;;;;;5037569;28;20091;-22
2023/06/24 06:47:31;;;;;;;3.97;2.90;;;;;;;;;;5037468;28;20464;-21
2023/06/24 06:49:57;;;;;;;3.13;2.83;;;;;;;;;;5037189;28;20033;-22
2023/06/24 06:52:23;;;;;;;2.88;2.67;;;;;;;;;;5037697;28;20022;-21
2023/06/24 06:54:49;;;;;;;3.50;3.30;;;;;;;;;;5037838;28;20036;-24
2023/06/24 06:57:15;;;;;;;3.08;2.88;;;;;;;;;;5037591;28;20021;-21
2023/06/24 06:59:41;;;;;;;3.05;2.85;;;;;;;;;;5037480;28;20360;-22
2023/06/24 07:02:07;;;;;;;3.08;2.88;;;;;;;;;;5037472;28;20021;-21
2023/06/24 07:04:33;;;;;;;3.10;2.90;;;;;;;;;;5037191;28;20480;-21
2023/06/24 07:07:00;;;;;;;3.47;3.17;;;;;;;;;;5037136;28;20021;-22
2023/06/24 07:09:26;;;;;;;3.38;3.17;;;;;;;;;;5037070;28;20026;-24
2023/06/24 07:11:52;;;;;;;2.58;2.38;;;;;;;;;;5036954;28;20368;-21
2023/06/24 07:14:18;;;;;;;4.95;3.28;;;;;;;;;;5037010;28;20040;-24
2023/06/24 07:16:44;;;;;;;3.80;3.45;;;;;;;;;;5036970;28;20021;-21
2023/06/24 07:19:10;;;;;;;6.55;2.80;;;;;;;;;;5037631;28;20328;-21
2023/06/24 07:21:36;;;;;;;3.17;2.97;;;;;;;;;;5035601;28;20104;-22
2023/06/24 07:24:02;;;;;;;4.38;3.95;;;;;;;;;;5037049;28;20487;-21
2023/06/24 07:26:30;;;;;;;3.22;3.03;;;;;;;;;;5019874;28;20094;-23
2023/06/24 07:28:59;;;;;;;3.78;3.47;;;;;;;;;;5036890;28;20030;-23
2023/06/24 07:31:25;;;;;;;3.63;3.33;;;;;;;;;;5036609;28;20128;-21
2023/06/24 07:33:51;;;;;;;3.90;3.60;;;;;;;;;;5036639;28;20026;-21
2023/06/24 07:36:18;;;;;;;3.75;3.50;;;;;;;;;;5036595;28;20021;-22
2023/06/24 07:38:44;;;;;;;3.38;3.17;;;;;;;;;;5036792;28;20031;-21
2023/06/24 07:41:10;;;;;;;2.47;2.38;;;;;;;;;;5036386;28;20045;-22
2023/06/24 07:43:37;;;;;;;3.55;3.22;;;;;;;;;;5037194;28;20119;-22
2023/06/24 07:46:03;;;;;;;2.80;2.65;;;;;;;;;;5036369;28;20079;-21
2023/06/24 07:48:29;;;;;;;3.97;3.05;;;;;;;;;;5036332;28;20091;-21
2023/06/24 07:50:55;;;;;;;2.92;2.70;;;;;;;;;;5035970;28;20042;-21
2023/06/24 07:53:21;;;;;;;2.83;2.63;;;;;;;;;;5036529;28;20022;-22
2023/06/24 07:55:47;;;;;;;3.15;2.95;;;;;;;;;;5036232;28;20032;-21
2023/06/24 07:58:13;;;;;;;3.03;2.83;;;;;;;;;;5036216;28;20029;-22
2023/06/24 08:00:39;;;;;;;3.00;2.80;;;;;;;;;;5036107;28;20036;-21
2023/06/24 08:03:05;;;;;;;3.28;2.97;;;;;;;;;;5036576;28;20348;-22
2023/06/24 08:05:31;;;;;;;2.75;2.55;;;;;;;;;;5036044;28;20021;-24
2023/06/24 08:07:58;;;;;;;3.38;3.17;;;;;;;;;;5035975;28;20030;-22
2023/06/24 08:10:24;;;;;;;2.72;2.60;;;;;;;;;;5035736;28;20029;-36
2023/06/24 08:12:50;;;;;;;3.17;2.88;;;;;;;;;;5036185;28;20032;-24
2023/06/24 08:15:16;;;;;;;3.67;2.58;;;;;;;;;;5036159;28;20091;-23
2023/06/24 08:17:42;;;;;;;2.95;2.75;;;;;;;;;;5035819;28;20152;-21
2023/06/24 08:20:09;;;;;;;3.50;3.20;;;;;;;;;;5035654;28;20025;-22
2023/06/24 08:22:35;;;;;;;3.17;2.95;;;;;;;;;;5035666;28;20029;-22
2023/06/24 08:25:01;;;;;;;2.95;2.67;;;;;;;;;;5036152;28;20071;-21
2023/06/24 08:27:27;;;;;;;2.70;2.60;;;;;;;;;;5035621;28;20334;-22
2023/06/24 08:29:53;;;;;;;2.90;2.70;;;;;;;;;;5035678;28;20029;-21
2023/06/24 08:32:19;;;;;;;2.80;2.70;;;;;;;;;;5017733;28;20476;-22
2023/06/24 08:34:46;;;;;;;3.95;3.65;;;;;;;;;;5035510;28;20348;-21
2023/06/24 08:37:12;;;;;;;3.17;2.97;;;;;;;;;;5035386;28;20497;-24
2023/06/24 08:39:39;;;;;;;3.22;3.03;;;;;;;;;;5035308;28;20033;-21
2023/06/24 08:42:05;;;;;;;2.83;2.63;;;;;;;;;;5035320;28;20092;-21
2023/06/24 08:44:31;;;;;;;3.28;3.08;;;;;;;;;;5017875;28;20025;-22
2023/06/24 08:46:57;;;;;;;2.90;2.70;;;;;;;;;;5035221;28;20093;-24
2023/06/24 08:49:23;;;;;;;3.22;3.03;;;;;;;;;;5035167;28;20460;-21
2023/06/24 08:51:51;;;;;;;3.00;2.80;;;;;;;;;;5035669;28;20123;-22
2023/06/24 08:54:20;;;;;;;2.92;2.80;;;;;;;;;;5035146;28;20026;-21
2023/06/24 08:56:46;;;;;;;2.90;2.70;;;;;;;;;;5035383;28;20026;-22
2023/06/24 08:59:12;;;;;;;2.97;2.78;;;;;;;;;;5035007;28;20036;-24
2023/06/24 09:01:38;;;;;;;3.40;3.10;;;;;;;;;;5035318;28;20021;-23
2023/06/24 09:04:05;;;;;;;4.20;3.80;;;;;;;;;;5034971;28;20084;-22
2023/06/24 09:06:33;;;;;;;3.10;2.90;;;;;;;;;;5035198;28;20040;-22
2023/06/24 09:08:59;;;;;;;3.00;2.80;;;;;;;;;;5035068;28;20035;-23
2023/06/24 09:11:27;;;;;;;3.65;3.42;;;;;;;;;;5034837;28;20025;-22
2023/06/24 09:13:59;;;;;;;3.85;3.65;;;;;;;;;;5035394;28;20022;-21
2023/06/24 09:16:26;;;;;;;3.33;3.13;;;;;;;;;;5035146;28;20036;-22
2023/06/24 09:18:52;;;;;;;3.28;3.08;;;;;;;;;;5034698;28;20021;-22
2023/06/24 09:21:25;;;;;;;3.78;3.58;;;;;;;;;;5034978;28;20380;-21
2023/06/24 09:23:53;;;;;;;4.00;3.72;;;;;;;;;;5034975;28;20352;-24
2023/06/24 09:26:19;;;;;;;3.95;3.65;;;;;;;;;;5034697;28;20025;-28
2023/06/24 09:28:49;;;;;;;3.28;2.97;;;;;;;;;;5034634;28;20479;-21
2023/06/24 09:31:15;;;;;;;4.00;3.80;;;;;;;;;;5034381;28;20025;-21
2023/06/24 09:33:41;;;;;;;3.90;3.58;;;;;;;;;;5034641;28;20136;-23
2023/06/24 09:36:11;;;;;;;3.78;3.53;;;;;;;;;;5034610;28;20365;-22
2023/06/24 09:38:40;;;;;;;3.22;3.03;;;;;;;;;;5034558;28;20028;-21
2023/06/24 09:41:06;;;;;;;3.55;3.25;;;;;;;;;;5034420;28;20033;-23
2023/06/24 09:43:37;;;;;;;3.45;3.25;;;;;;;;;;5034595;28;20138;-24
2023/06/24 09:46:04;;;;;;;4.13;3.83;;;;;;;;;;5037547;28;20053;-23
2023/06/24 09:48:30;;;;;;;2.85;2.75;;;;;;;;;;5038538;28;20267;-22
2023/06/24 09:51:00;;;;;;;3.50;3.30;;;;;;;;;;5038241;28;20045;-22
2023/06/24 09:53:28;;;;;;;4.55;4.25;;;;;;;;;;5038550;28;20022;-22
2023/06/24 09:55:54;;;;;;;3.88;3.67;;;;;;;;;;5039048;28;20037;-27
2023/06/24 09:58:21;;;;;;;4.30;4.00;;;;;;;;;;5038429;28;20022;-23
2023/06/24 10:00:48;;;;;;;4.50;4.18;;;;;;;;;;5038283;28;20028;-23
2023/06/24 10:03:15;;;;;;;3.30;3.10;;;;;;;;;;5038362;28;20083;-22
2023/06/24 10:05:42;;;;;;;3.65;3.45;;;;;;;;;;5038231;28;20029;-22
2023/06/24 10:08:09;;;;;;;3.53;3.30;;;;;;;;;;5038522;28;20357;-21
2023/06/24 10:10:35;;;;;;;3.10;2.90;;;;;;;;;;5038039;28;20032;-23
2023/06/24 10:13:02;;;;;;;3.35;3.15;;;;;;;;;;5038124;28;20452;-21
2023/06/24 10:15:28;;;;;;;3.53;3.33;;;;;;;;;;5038401;28;20349;-22
2023/06/24 10:17:54;;;;;;;4.00;3.70;;;;;;;;;;5038105;28;20029;-21
2023/06/24 10:20:26;;;;;;;4.15;3.83;;;;;;;;;;5038075;28;20030;-21
2023/06/24 10:22:53;;;;;;;3.22;3.03;;;;;;;;;;5038238;28;20052;-23
2023/06/24 10:25:20;;;;;;;3.72;3.53;;;;;;;;;;5038166;28;20076;-22
2023/06/24 10:27:53;;;;;;;3.55;3.35;;;;;;;;;;5037894;28;20057;-21
2023/06/24 10:30:22;;;;;;;3.58;3.35;;;;;;;;;;5037866;28;20056;-21
2023/06/24 10:32:53;;;;;;;3.47;3.28;;;;;;;;;;5038047;28;20025;-21
2023/06/24 10:35:19;;;;;;;;;;;;;;;;;;5038470;28;20033;-23
2023/06/24 10:37:54;;;;;;;4.15;3.83;;;;;;;;;;5037718;28;20252;-22
2023/06/24 10:40:34;;;;;;;3.40;3.20;;;;;;;;;;5037712;28;20348;-22
2023/06/24 10:43:01;;;;;;;3.77;3.47;;;;;;;;;;5037933;28;20079;-22
2023/06/24 10:45:27;;;;;;;3.90;3.40;;;;;;;;;;5037570;28;20041;-21
2023/06/24 10:47:56;;;;;;;3.20;3.00;;;;;;;;;;5037498;28;20056;-21
2023/06/24 10:50:23;;;;;;;3.20;3.00;;;;;;;;;;5037283;28;20081;-21
2023/06/24 10:52:55;;;;;;;2.83;2.63;;;;;;;;;;5037361;28;20030;-23
2023/06/24 10:55:22;;;;;;;4.10;3.80;;;;;;;;;;5037029;28;20049;-23
2023/06/24 10:57:48;;;;;;;4.35;4.10;;;;;;;;;;5037352;28;20072;-22
2023/06/24 11:00:15;;;;;;;4.47;4.10;;;;;;;;;;5037176;28;20021;-21
2023/06/24 11:02:41;;;;;;;3.50;3.30;;;;;;;;;;5037250;28;20029;-21
2023/06/24 11:05:08;;;;;;;3.17;3.03;;;;;;;;;;5037483;28;20091;-22
2023/06/24 11:07:35;;;;;;;3.25;2.95;;;;;;;;;;5037395;28;20389;-21
2023/06/24 11:10:02;;;;;;;3.25;3.05;;;;;;;;;;5037235;28;20055;-21
2023/06/24 11:12:31;;;;;;;3.47;3.28;;;;;;;;;;5036961;28;20021;-21
2023/06/24 11:14:57;;;;;;;4.78;4.05;;;;;;;;;;5037034;28;20353;-22
2023/06/24 11:17:24;;;;;;;3.33;3.13;;;;;;;;;;5037773;28;20021;-21
2023/06/24 11:19:53;;;;;;;3.67;3.47;;;;;;;;;;5037394;28;20091;-24
2023/06/24 11:22:19;;;;;;;3.65;3.45;;;;;;;;;;5037272;28;20313;-21
2023/06/24 11:24:45;;;;;;;3.58;3.25;;;;;;;;;;5019408;28;20041;-22
2023/06/24 11:27:11;;;;;;;3.67;3.38;;;;;;;;;;5036773;28;20500;-25
2023/06/24 11:29:38;;;;;;;3.80;3.60;;;;;;;;;;5036612;28;20108;-24
2023/06/24 11:32:07;;;;;;;4.18;3.85;;;;;;;;;;5036671;28;20026;-22
2023/06/24 11:34:34;;;;;;;3.50;3.30;;;;;;;;;;5036966;28;20032;-21
2023/06/24 11:37:09;;;;;;;4.00;3.70;;;;;;;;;;5037167;28;20025;-21
2023/06/24 11:39:35;;;;;;;3.80;3.60;;;;;;;;;;5036789;28;20451;-22
2023/06/24 11:42:01;;;;;;;4.05;3.75;;;;;;;;;;5036519;28;20502;-21
2023/06/24 11:44:27;;;;;;;4.00;3.72;;;;;;;;;;5036473;28;20025;-22
2023/06/24 11:46:53;;;;;;;3.42;3.22;;;;;;;;;;5036423;28;20099;-22
2023/06/24 11:49:20;;;;;;;3.80;3.60;;;;;;;;;;5036251;28;20109;-21
2023/06/24 11:51:47;;;;;;;3.95;3.75;;;;;;;;;;5036091;28;20460;-22
2023/06/24 11:54:14;;;;;;;3.80;3.60;;;;;;;;;;5036571;28;20018;-21
2023/06/24 11:56:41;;;;;;;3.92;3.72;;;;;;;;;;5036196;28;20025;-22
2023/06/24 11:59:18;;;;;;;4.15;3.95;;;;;;;;;;5036376;28;20025;-22
2023/06/24 12:01:44;;;;;;;4.05;3.85;;;;;;;;;;5036010;28;20112;-21
2023/06/24 12:04:11;;;;;;;3.17;2.97;;;;;;;;;;5036073;28;20088;-24
2023/06/24 12:06:37;;;;;;;3.42;3.22;;;;;;;;;;5036371;28;20040;-22
2023/06/24 12:09:03;;;;;;;3.90;3.67;;;;;;;;;;5035456;28;20138;-22
2023/06/24 12:11:29;;;;;;;4.00;3.70;;;;;;;;;;5035864;28;20029;-26
2023/06/24 12:13:55;;;;;;;4.22;3.92;;;;;;;;;;5035911;28;20013;-22
2023/06/24 12:16:23;;;;;;;4.78;3.97;;;;;;;;;;5036170;28;20083;-22
2023/06/24 12:18:49;;;;;;;3.60;3.40;;;;;;;;;;5035749;28;20037;-22
2023/06/24 12:21:15;;;;;;;4.05;3.75;;;;;;;;;;5035696;28;20461;-22
2023/06/24 12:23:41;;;;;;;3.72;3.47;;;;;;;;;;5035933;28;20029;-21
2023/06/24 12:26:07;;;;;;;3.83;3.63;;;;;;;;;;5035700;28;20100;-21
2023/06/24 12:28:33;;;;;;;3.80;3.60;;;;;;;;;;5035648;28;20034;-22
2023/06/24 12:30:59;;;;;;;5.20;3.90;;;;;;;;;;5035495;28;20056;-22
2023/06/24 12:33:25;;;;;;;4.05;3.80;;;;;;;;;;5035830;28;20025;-26
2023/06/24 12:35:51;;;;;;;4.07;3.78;;;;;;;;;;5035466;28;20032;-21
2023/06/24 12:38:18;;;;;;;3.88;3.58;;;;;;;;;;5035705;28;20056;-23
2023/06/24 12:40:44;;;;;;;4.25;3.95;;;;;;;;;;5017912;28;20025;-21
2023/06/24 12:43:11;;;;;;;3.70;3.50;;;;;;;;;;5035633;28;20032;-22
2023/06/24 12:45:38;;;;;;;3.67;3.47;;;;;;;;;;5035340;28;20037;-23
2023/06/24 12:48:05;;;;;;;3.30;3.10;;;;;;;;;;5035276;28;20049;-22
2023/06/24 12:50:31;;;;;;;3.50;3.30;;;;;;;;;;5034987;28;20046;-24
2023/06/24 12:52:58;;;;;;;3.50;3.30;;;;;;;;;;5035452;28;20305;-21
2023/06/24 12:55:24;;;;;;;3.67;3.47;;;;;;;;;;5035120;28;20026;-21
2023/06/24 12:57:50;;;;;;;2.80;2.60;;;;;;;;;;5035058;28;20095;-24
2023/06/24 13:00:19;;;;;;;3.53;3.22;;;;;;;;;;5035318;28;20096;-24
2023/06/24 13:02:45;;;;;;;3.20;3.10;;;;;;;;;;5035071;28;20025;-22
2023/06/24 13:05:12;;;;;;;3.28;3.08;;;;;;;;;;5035232;28;20036;-22
2023/06/24 13:07:38;;;;;;;4.63;3.83;;;;;;;;;;5017579;28;20056;-22
2023/06/24 13:10:05;;;;;;;4.18;3.88;;;;;;;;;;5034986;28;20108;-22
2023/06/24 13:12:32;;;;;;;4.10;3.90;;;;;;;;;;5034832;28;20088;-21
2023/06/24 13:14:58;;;;;;;3.70;3.50;;;;;;;;;;5034806;28;20108;-22
2023/06/24 13:17:25;;;;;;;3.53;3.33;;;;;;;;;;5034832;28;20057;-21
2023/06/24 13:19:51;;;;;;;3.28;3.00;;;;;;;;;;5034684;28;20048;-24
2023/06/24 13:22:18;;;;;;;3.60;3.40;;;;;;;;;;5035052;28;20461;-23
2023/06/24 13:24:44;;;;;;;3.40;3.20;;;;;;;;;;5034964;28;20436;-21
2023/06/24 13:27:10;;;;;;;4.38;4.07;;;;;;;;;;5034987;28;20022;-22
2023/06/24 13:29:37;;;;;;;3.80;3.60;;;;;;;;;;5034905;28;20352;-23
2023/06/24 13:32:03;;;;;;;4.03;3.83;;;;;;;;;;5034797;28;20091;-22
2023/06/24 13:34:30;;;;;;;3.88;3.58;;;;;;;;;;5034906;28;20044;-21
2023/06/24 13:36:56;;;;;;;4.38;4.07;;;;;;;;;;5034563;28;20084;-21
2023/06/24 13:39:23;;;;;;;3.45;3.25;;;;;;;;;;5017943;28;20464;-24
2023/06/24 13:41:50;;;;;;;3.00;2.90;;;;;;;;;;5034506;28;20102;-22
2023/06/24 13:44:16;;;;;;;3.47;3.28;;;;;;;;;;5034835;28;20356;-28
2023/06/24 13:46:42;;;;;;;3.38;3.17;;;;;;;;;;5035309;28;20548;-21
2023/06/24 13:49:09;;;;;;;3.83;3.63;;;;;;;;;;5017019;28;20040;-24
2023/06/24 13:51:35;;;;;;;3.75;3.55;;;;;;;;;;5034327;28;20049;-24
2023/06/24 13:54:01;;;;;;;3.30;3.10;;;;;;;;;;5034442;28;20040;-23
2023/06/24 13:56:28;;;;;;;3.90;3.70;;;;;;;;;;5034714;28;20349;-24
2023/06/24 13:58:55;;;;;;;3.72;3.53;;;;;;;;;;5034609;28;20395;-22
2023/06/24 14:01:21;;;;;;;2.78;2.63;;;;;;;;;;5034391;28;20079;-22
2023/06/24 14:03:48;;;;;;;3.03;2.83;;;;;;;;;;5034672;28;20403;-22
2023/06/24 14:06:15;;;;;;;3.05;2.85;;;;;;;;;;5034266;28;20029;-22
2023/06/24 14:08:41;;;;;;;2.58;2.47;;;;;;;;;;5034560;28;20460;-21
2023/06/24 14:11:08;;;;;;;3.30;3.10;;;;;;;;;;5034138;28;20453;-22
2023/06/24 14:13:36;;;;;;;3.45;3.25;;;;;;;;;;5034541;28;20069;-22
2023/06/24 14:16:02;;;;;;;4.55;4.25;;;;;;;;;;5034477;28;20032;-23
2023/06/24 14:18:31;;;;;;;4.30;4.00;;;;;;;;;;5034495;28;20022;-22
2023/06/24 14:20:58;;;;;;;3.45;3.25;;;;;;;;;;5034032;28;20041;-24
2023/06/24 14:23:25;;;;;;;3.50;3.30;;;;;;;;;;5034213;28;20036;-22
2023/06/24 14:25:51;;;;;;;4.30;3.78;;;;;;;;;;5034215;28;20105;-22
2023/06/24 14:28:18;;;;;;;3.88;3.67;;;;;;;;;;5034130;28;20025;-22
2023/06/24 14:30:45;;;;;;;4.13;3.75;;;;;;;;;;5034923;28;20342;-23
2023/06/24 14:33:12;;;;;;;3.45;3.25;;;;;;;;;;5037767;28;20025;-21
2023/06/24 14:35:38;;;;;;;3.72;3.53;;;;;;;;;;5037760;28;20022;-22
2023/06/24 14:38:04;;;;;;;3.28;3.08;;;;;;;;;;5037739;28;20025;-21
2023/06/24 14:40:31;;;;;;;3.88;3.60;;;;;;;;;;5037885;28;20036;-22
2023/06/24 14:42:58;;;;;;;3.72;3.53;;;;;;;;;;5037824;28;20083;-24